createdAt,value
2018-05-08T00:01:59.844Z,67.10
2018-05-08T00:04:26.384Z,67.10
2018-05-08T00:06:52.975Z,66.70
2018-05-08T00:09:19.630Z,66.90
2018-05-08T00:11:46.235Z,67.10
2018-05-08T00:14:12.804Z,66.80
2018-05-08T00:16:39.392Z,66.40
2018-05-08T00:19:05.960Z,66.20
2018-05-08T00:21:32.888Z,66.20
2018-05-08T00:23:59.848Z,66.30
2018-05-08T00:26:26.396Z,66.30
2018-05-08T00:28:52.964Z,66.80
2018-05-08T00:31:19.932Z,66.70
2018-05-08T00:33:46.890Z,66.40
2018-05-08T00:36:13.469Z,66.40
2018-05-08T00:38:40.005Z,66.10
2018-05-08T00:41:06.591Z,66.20
2018-05-08T00:43:33.604Z,66.50
2018-05-08T00:46:00.160Z,66.50
2018-05-08T00:48:26.744Z,66.20
2018-05-08T00:50:53.280Z,66.40
2018-05-08T00:53:19.886Z,66.40
2018-05-08T00:55:46.487Z,66.80
2018-05-08T00:58:13.035Z,66.60
2018-05-08T01:00:39.684Z,66.80
2018-05-08T01:03:06.611Z,66.70
2018-05-08T01:05:33.192Z,66.70
2018-05-08T01:08:00.135Z,67.20
2018-05-08T01:10:26.704Z,67.20
2018-05-08T01:12:53.672Z,66.40
2018-05-08T01:15:20.252Z,66.40
2018-05-08T01:17:46.845Z,66.60
2018-05-08T01:20:13.779Z,66.60
2018-05-08T01:22:40.422Z,66.60
2018-05-08T01:25:07.005Z,66.60
2018-05-08T01:27:33.932Z,66.70
2018-05-08T01:30:00.504Z,66.70
2018-05-08T01:32:27.447Z,66.80
2018-05-08T01:34:53.999Z,66.80
2018-05-08T01:37:20.592Z,66.90
2018-05-08T01:39:47.181Z,67.10
2018-05-08T01:42:13.823Z,66.90
2018-05-08T01:44:40.399Z,67.20
2018-05-08T01:47:07.303Z,67.50
2018-05-08T01:49:33.906Z,67.50
2018-05-08T01:52:00.812Z,67.60
2018-05-08T01:54:27.420Z,67.60
2018-05-08T01:56:54.379Z,67.90
2018-05-08T01:59:21.310Z,67.90
2018-05-08T02:01:47.956Z,67.90
2018-05-08T02:04:14.580Z,68.10
2018-05-08T02:06:41.176Z,68.10
2018-05-08T02:09:08.129Z,68.50
2018-05-08T02:11:35.040Z,68.60
2018-05-08T02:14:01.622Z,68.60
2018-05-08T02:16:28.556Z,69.00
2018-05-08T02:18:55.140Z,69.00
2018-05-08T02:21:21.732Z,68.80
2018-05-08T02:23:48.289Z,68.70
2018-05-08T02:26:14.881Z,68.30
2018-05-08T02:28:41.454Z,68.80
2018-05-08T02:31:08.056Z,69.20
2018-05-08T02:33:34.644Z,69.40
2018-05-08T02:36:01.201Z,68.90
2018-05-08T02:38:27.778Z,68.90
2018-05-08T02:40:54.307Z,68.60
2018-05-08T02:43:20.891Z,68.70
2018-05-08T02:45:47.529Z,68.80
2018-05-08T02:48:14.073Z,69.30
2018-05-08T02:50:40.677Z,69.40
2018-05-08T02:53:07.261Z,69.40
2018-05-08T02:55:33.864Z,69.40
2018-05-08T02:58:00.819Z,69.40
2018-05-08T03:00:27.736Z,69.40
2018-05-08T03:02:54.340Z,69.40
2018-05-08T03:05:20.880Z,69.80
2018-05-08T03:07:47.507Z,70.00
2018-05-08T03:10:14.468Z,69.90
2018-05-08T03:12:41.372Z,70.00
2018-05-08T03:15:07.943Z,70.00
2018-05-08T03:17:34.517Z,70.00
2018-05-08T03:20:01.105Z,70.30
2018-05-08T03:22:27.691Z,70.50
2018-05-08T03:24:54.231Z,70.20
2018-05-08T03:27:20.809Z,70.30
2018-05-08T03:29:47.761Z,70.80
2018-05-08T03:32:14.316Z,70.80
2018-05-08T03:34:40.956Z,70.70
2018-05-08T03:37:07.863Z,70.40
2018-05-08T03:39:34.440Z,70.40
2018-05-08T03:42:01.004Z,70.60
2018-05-08T03:44:27.935Z,71.10
2018-05-08T03:46:54.518Z,71.20
2018-05-08T03:49:21.422Z,71.00
2018-05-08T03:51:48.016Z,71.00
2018-05-08T03:54:14.991Z,71.00
2018-05-08T03:56:41.524Z,71.00
2018-05-08T03:59:08.475Z,71.10
2018-05-08T04:01:47.736Z,70.70
2018-05-08T04:04:26.517Z,70.70
2018-05-08T04:07:05.248Z,70.80
2018-05-08T04:09:31.836Z,70.40
2018-05-08T04:11:58.752Z,70.60
2018-05-08T04:14:25.314Z,70.60
2018-05-08T04:16:51.887Z,70.90
2018-05-08T04:19:18.812Z,71.10
2018-05-08T04:21:45.418Z,71.00
2018-05-08T04:24:11.960Z,71.10
2018-05-08T04:26:38.532Z,71.10
2018-05-08T04:29:05.122Z,71.00
2018-05-08T04:31:32.044Z,71.10
2018-05-08T04:33:58.666Z,71.10
2018-05-08T04:36:25.200Z,70.90
2018-05-08T04:38:51.784Z,71.20
2018-05-08T04:41:18.416Z,71.40
2018-05-08T04:43:44.984Z,71.10
2018-05-08T04:46:11.577Z,71.00
2018-05-08T04:48:38.116Z,71.10
2018-05-08T04:51:04.861Z,71.30
2018-05-08T04:53:31.416Z,70.50
2018-05-08T04:55:57.994Z,70.50
2018-05-08T04:58:24.583Z,69.70
2018-05-08T05:00:51.134Z,69.80
2018-05-08T05:03:17.789Z,69.10
2018-05-08T05:05:44.452Z,68.50
2018-05-08T05:08:11.440Z,66.70
2018-05-08T05:10:38.072Z,66.70
2018-05-08T05:13:05.010Z,64.70
2018-05-08T05:15:31.597Z,64.70
2018-05-08T05:17:58.216Z,64.30
2018-05-08T05:20:24.747Z,64.00
2018-05-08T05:22:51.316Z,62.40
2018-05-08T05:25:17.885Z,62.20
2018-05-08T05:27:44.887Z,61.10
2018-05-08T05:30:11.460Z,61.10
2018-05-08T05:32:37.996Z,61.30
2018-05-08T05:35:04.589Z,59.90
2018-05-08T05:37:31.127Z,59.80
2018-05-08T05:39:58.072Z,59.80
2018-05-08T05:42:25.012Z,60.30
2018-05-08T05:44:51.669Z,60.30
2018-05-08T05:47:18.260Z,59.50
2018-05-08T05:49:45.041Z,59.50
2018-05-08T05:52:11.632Z,59.70
2018-05-08T05:54:38.252Z,59.30
2018-05-08T05:57:04.788Z,58.80
2018-05-08T05:59:31.381Z,59.00
2018-05-08T06:01:58.294Z,58.80
2018-05-08T06:04:24.864Z,58.80
2018-05-08T06:06:51.452Z,59.40
2018-05-08T06:09:18.045Z,59.50
2018-05-08T06:11:44.656Z,60.70
2018-05-08T06:14:11.250Z,59.60
2018-05-08T06:16:37.824Z,58.20
2018-05-08T06:19:04.780Z,59.20
2018-05-08T06:21:31.361Z,59.20
2018-05-08T06:23:57.895Z,58.80
2018-05-08T06:26:24.471Z,58.00
2018-05-08T06:28:51.022Z,57.30
2018-05-08T06:31:17.609Z,57.30
2018-05-08T06:33:44.559Z,58.10
2018-05-08T06:36:12.011Z,58.10
2018-05-08T06:38:38.596Z,57.70
2018-05-08T06:41:05.169Z,57.60
2018-05-08T06:43:31.764Z,57.30
2018-05-08T06:45:58.343Z,56.90
2018-05-08T06:48:24.892Z,57.60
2018-05-08T06:50:51.491Z,57.40
2018-05-08T06:53:18.046Z,56.50
2018-05-08T06:55:45.014Z,57.80
2018-05-08T06:58:11.956Z,57.10
2018-05-08T07:00:38.868Z,56.60
2018-05-08T07:03:05.445Z,56.60
2018-05-08T07:05:31.997Z,56.60
2018-05-08T07:07:58.588Z,54.80
2018-05-08T07:10:25.224Z,55.80
2018-05-08T07:12:51.798Z,56.10
2018-05-08T07:15:18.395Z,55.30
2018-05-08T07:17:45.312Z,55.80
2018-05-08T07:20:11.885Z,55.80
2018-05-08T07:22:38.864Z,54.40
2018-05-08T07:25:05.771Z,54.20
2018-05-08T07:27:32.355Z,54.20
2018-05-08T07:29:59.309Z,55.40
2018-05-08T07:32:26.276Z,55.70
2018-05-08T07:34:53.234Z,54.10
2018-05-08T07:37:20.154Z,55.10
2018-05-08T07:39:46.732Z,55.10
2018-05-08T07:42:13.648Z,54.70
2018-05-08T07:44:40.219Z,54.80
2018-05-08T07:47:06.850Z,54.60
2018-05-08T07:49:33.386Z,54.10
2018-05-08T07:51:59.961Z,54.90
2018-05-08T07:54:26.514Z,54.50
2018-05-08T07:56:53.088Z,55.00
2018-05-08T07:59:19.676Z,54.80
2018-05-08T08:01:46.233Z,55.50
2018-05-08T08:04:12.815Z,54.00
2018-05-08T08:06:39.379Z,53.70
2018-05-08T08:09:06.340Z,53.00
2018-05-08T08:11:33.015Z,53.00
2018-05-08T08:13:59.590Z,54.50
2018-05-08T08:16:26.172Z,53.40
2018-05-08T08:18:52.708Z,53.30
2018-05-08T08:21:19.724Z,53.50
2018-05-08T08:23:46.388Z,53.50
2018-05-08T08:26:12.926Z,52.50
2018-05-08T08:28:39.510Z,52.60
2018-05-08T08:31:06.073Z,53.20
2018-05-08T08:33:33.048Z,52.30
2018-05-08T08:35:59.621Z,52.30
2018-05-08T08:38:26.178Z,51.80
2018-05-08T08:40:52.863Z,51.30
2018-05-08T08:43:19.368Z,51.10
2018-05-08T08:45:45.963Z,51.20
2018-05-08T08:48:12.921Z,50.90
2018-05-08T08:50:39.845Z,51.40
2018-05-08T08:53:06.428Z,51.40
2018-05-08T08:55:33.365Z,49.80
2018-05-08T08:57:59.945Z,49.80
2018-05-08T09:00:26.896Z,49.40
2018-05-08T09:02:53.437Z,49.40
2018-05-08T09:05:20.377Z,50.50
2018-05-08T09:07:46.926Z,50.50
2018-05-08T09:10:13.924Z,49.20
2018-05-08T09:12:40.507Z,49.20
2018-05-08T09:15:07.085Z,48.70
2018-05-08T09:17:33.669Z,48.70
2018-05-08T09:20:00.212Z,48.10
2018-05-08T09:22:26.796Z,48.20
2018-05-08T09:24:53.400Z,47.90
2018-05-08T09:27:19.944Z,46.30
2018-05-08T09:29:46.881Z,46.80
2018-05-08T09:32:13.843Z,47.10
2018-05-08T09:34:40.760Z,45.20
2018-05-08T09:37:07.335Z,45.20
2018-05-08T09:39:33.935Z,47.20
2018-05-08T09:42:00.502Z,47.20
2018-05-08T09:44:27.090Z,46.60
2018-05-08T09:46:54.018Z,46.10
2018-05-08T09:49:20.606Z,46.10
2018-05-08T09:51:47.642Z,46.00
2018-05-08T09:54:14.230Z,46.00
2018-05-08T09:56:40.855Z,46.40
2018-05-08T09:59:07.413Z,46.60
2018-05-08T10:01:33.993Z,45.80
2018-05-08T10:04:00.585Z,46.60
2018-05-08T10:06:27.520Z,45.60
2018-05-08T10:08:54.092Z,45.60
2018-05-08T10:11:21.020Z,46.80
2018-05-08T10:13:47.660Z,46.80
2018-05-08T10:16:14.304Z,47.20
2018-05-08T10:18:40.849Z,45.70
2018-05-08T10:21:07.446Z,46.60
2018-05-08T10:23:34.027Z,45.50
2018-05-08T10:26:00.600Z,45.80
2018-05-08T10:28:27.200Z,45.30
2018-05-08T10:30:54.116Z,45.00
2018-05-08T10:33:20.703Z,45.00
2018-05-08T10:35:47.642Z,45.10
2018-05-08T10:38:14.608Z,46.60
2018-05-08T10:40:41.604Z,45.40
2018-05-08T10:43:08.295Z,45.40
2018-05-08T10:45:34.855Z,45.10
2018-05-08T10:48:01.778Z,45.00
2018-05-08T10:50:28.361Z,45.00
2018-05-08T10:52:55.328Z,45.00
2018-05-08T10:55:21.886Z,45.00
2018-05-08T10:57:48.469Z,45.40
2018-05-08T11:00:15.032Z,45.20
2018-05-08T11:02:41.612Z,45.80
2018-05-08T11:05:08.568Z,45.00
2018-05-08T11:07:35.509Z,41.20
2018-05-08T11:10:02.116Z,41.20
2018-05-08T11:12:28.697Z,41.60
2018-05-08T11:14:55.703Z,43.10
2018-05-08T11:17:22.293Z,43.10
2018-05-08T11:19:48.918Z,43.20
2018-05-08T11:22:15.515Z,43.10
2018-05-08T11:24:42.073Z,41.60
2018-05-08T11:27:09.063Z,43.30
2018-05-08T11:29:35.632Z,43.30
2018-05-08T11:32:02.199Z,44.30
2018-05-08T11:34:28.791Z,43.90
2018-05-08T11:36:55.712Z,44.00
2018-05-08T11:39:22.345Z,44.00
2018-05-08T11:41:48.910Z,43.50
2018-05-08T11:44:15.472Z,43.10
2018-05-08T11:46:42.442Z,43.30
2018-05-08T11:49:08.995Z,43.40
2018-05-08T11:51:35.568Z,43.20
2018-05-08T11:54:02.161Z,43.20
2018-05-08T11:56:28.713Z,43.00
2018-05-08T11:58:55.276Z,42.80
2018-05-08T12:01:22.236Z,42.70
2018-05-08T12:03:49.211Z,39.40
2018-05-08T12:06:15.804Z,39.40
2018-05-08T12:08:42.336Z,39.40
2018-05-08T12:11:08.936Z,39.70
2018-05-08T12:13:35.854Z,39.00
2018-05-08T12:16:02.574Z,39.00
2018-05-08T12:18:29.268Z,39.40
2018-05-08T12:20:55.874Z,39.80
2018-05-08T12:23:22.452Z,39.60
2018-05-08T12:25:49.009Z,39.90
2018-05-08T12:28:15.656Z,39.80
2018-05-08T12:30:42.338Z,38.90
2018-05-08T12:33:08.820Z,39.70
2018-05-08T12:35:35.417Z,41.20
2018-05-08T12:38:02.367Z,41.70
2018-05-08T12:40:29.323Z,41.80
2018-05-08T12:42:55.905Z,42.60
2018-05-08T12:45:22.442Z,42.70
2018-05-08T12:47:49.072Z,41.70
2018-05-08T12:50:16.045Z,41.40
2018-05-08T12:52:42.637Z,41.40
2018-05-08T12:55:09.211Z,42.10
2018-05-08T12:57:35.780Z,42.50
2018-05-08T13:00:02.823Z,42.70
2018-05-08T13:02:29.416Z,42.70
2018-05-08T13:04:55.981Z,43.60
2018-05-08T13:07:22.565Z,43.50
2018-05-08T13:09:49.155Z,43.50
2018-05-08T13:12:15.752Z,43.30
2018-05-08T13:14:42.353Z,42.90
2018-05-08T13:17:08.912Z,43.00
2018-05-08T13:19:35.489Z,43.60
2018-05-08T13:22:02.109Z,43.30
2018-05-08T13:24:28.791Z,42.10
2018-05-08T13:26:55.441Z,44.00
2018-05-08T13:29:22.028Z,43.50
2018-05-08T13:31:48.989Z,42.80
2018-05-08T13:34:15.521Z,42.80
2018-05-08T13:36:42.489Z,42.60
2018-05-08T13:39:09.079Z,42.60
2018-05-08T13:41:35.621Z,41.70
2018-05-08T13:44:02.225Z,43.20
2018-05-08T13:46:28.788Z,42.90
2018-05-08T13:48:55.380Z,42.30
2018-05-08T13:51:21.960Z,42.30
2018-05-08T13:53:48.893Z,43.50
2018-05-08T13:56:15.493Z,43.50
2018-05-08T13:58:42.088Z,42.00
2018-05-08T14:01:08.725Z,41.00
2018-05-08T14:03:35.308Z,41.90
2018-05-08T14:06:02.244Z,42.30
2018-05-08T14:08:28.832Z,42.30
2018-05-08T14:10:55.377Z,43.10
2018-05-08T14:13:21.962Z,43.40
2018-05-08T14:15:48.581Z,44.30
2018-05-08T14:18:15.131Z,43.30
2018-05-08T14:20:41.711Z,42.90
2018-05-08T14:23:15.220Z,42.20
2018-05-08T14:25:41.911Z,42.30
2018-05-08T14:28:08.452Z,42.40
2018-05-08T14:30:35.036Z,42.10
2018-05-08T14:33:01.610Z,42.40
2018-05-08T14:35:28.173Z,42.00
2018-05-08T14:37:54.785Z,42.40
2018-05-08T14:40:21.365Z,42.80
2018-05-08T14:42:47.934Z,42.90
2018-05-08T14:45:14.519Z,42.30
2018-05-08T14:47:41.079Z,43.40
2018-05-08T14:50:07.705Z,42.80
2018-05-08T14:52:34.678Z,44.30
2018-05-08T14:55:01.241Z,44.30
2018-05-08T14:57:27.845Z,44.30
2018-05-08T14:59:54.768Z,45.40
2018-05-08T15:02:21.354Z,45.40
2018-05-08T15:04:48.328Z,45.30
2018-05-08T15:07:14.885Z,45.30
2018-05-08T15:09:41.473Z,45.30
2018-05-08T15:12:08.028Z,45.60
2018-05-08T15:14:34.613Z,44.60
2018-05-08T15:17:01.197Z,44.00
2018-05-08T15:19:27.754Z,43.70
2018-05-08T15:21:54.436Z,44.00
2018-05-08T15:24:20.950Z,44.30
2018-05-08T15:26:47.560Z,45.20
2018-05-08T15:29:14.311Z,45.20
2018-05-08T15:31:41.266Z,45.70
2018-05-08T15:34:07.921Z,45.70
2018-05-08T15:36:34.528Z,45.70
2018-05-08T15:39:01.105Z,46.70
2018-05-08T15:41:27.676Z,47.50
2018-05-08T15:43:54.276Z,48.00
2018-05-08T15:46:20.910Z,47.80
2018-05-08T15:48:47.481Z,48.20
2018-05-08T15:51:14.450Z,49.40
2018-05-08T15:53:41.032Z,49.40
2018-05-08T15:56:07.671Z,49.20
2018-05-08T15:58:34.251Z,50.00
2018-05-08T16:01:00.813Z,50.20
2018-05-08T16:03:27.378Z,49.50
2018-05-08T16:05:54.344Z,48.90
2018-05-08T16:08:21.296Z,49.20
2018-05-08T16:10:48.220Z,48.90
2018-05-08T16:13:14.812Z,48.90
2018-05-08T16:15:41.732Z,48.70
2018-05-08T16:18:08.337Z,48.70
2018-05-08T16:20:34.931Z,48.80
2018-05-08T16:23:01.481Z,48.80
2018-05-08T16:25:28.984Z,49.00
2018-05-08T16:27:55.540Z,49.50
2018-05-08T16:30:22.208Z,49.20
2018-05-08T16:32:49.123Z,49.70
2018-05-08T16:35:16.060Z,50.10
2018-05-08T16:37:42.696Z,50.10
2018-05-08T16:40:09.256Z,50.30
2018-05-08T16:42:35.876Z,51.00
2018-05-08T16:45:02.527Z,50.70
2018-05-08T16:47:29.072Z,50.20
2018-05-08T16:49:55.685Z,50.40
2018-05-08T16:52:22.268Z,50.40
2018-05-08T16:54:48.926Z,50.80
2018-05-08T16:57:15.529Z,51.40
2018-05-08T16:59:42.096Z,52.40
2018-05-08T17:02:08.692Z,52.70
2018-05-08T17:04:35.245Z,53.00
2018-05-08T17:07:01.848Z,53.40
2018-05-08T17:09:28.456Z,53.80
2018-05-08T17:11:55.460Z,54.00
2018-05-08T17:14:22.083Z,54.00
2018-05-08T17:16:48.640Z,54.50
2018-05-08T17:19:16.203Z,54.30
2018-05-08T17:21:42.873Z,54.40
2018-05-08T17:24:09.420Z,55.00
2018-05-08T17:26:36.339Z,54.60
2018-05-08T17:29:02.918Z,54.30
2018-05-08T17:31:29.536Z,54.50
2018-05-08T17:33:56.228Z,55.00
2018-05-08T17:36:22.896Z,54.10
2018-05-08T17:38:49.580Z,54.50
2018-05-08T17:41:16.170Z,55.10
2018-05-08T17:43:42.752Z,56.30
2018-05-08T17:46:09.354Z,57.30
2018-05-08T17:48:35.945Z,57.80
2018-05-08T17:51:02.652Z,58.00
2018-05-08T17:53:29.204Z,58.30
2018-05-08T17:55:55.827Z,58.50
2018-05-08T17:58:22.423Z,58.50
2018-05-08T18:00:49.000Z,58.60
2018-05-08T18:03:15.988Z,58.90
2018-05-08T18:05:42.536Z,58.90
2018-05-08T18:08:09.108Z,59.20
2018-05-08T18:10:35.688Z,59.20
2018-05-08T18:13:02.256Z,59.10
2018-05-08T18:15:29.220Z,59.40
2018-05-08T18:17:56.155Z,59.50
2018-05-08T18:20:23.019Z,59.50
2018-05-08T18:22:49.649Z,59.30
2018-05-08T18:25:16.225Z,59.50
2018-05-08T18:27:42.823Z,59.70
2018-05-08T18:30:09.375Z,59.60
2018-05-08T18:32:35.976Z,59.60
2018-05-08T18:35:03.113Z,59.80
2018-05-08T18:37:30.076Z,60.30
2018-05-08T18:39:57.042Z,60.40
2018-05-08T18:42:24.110Z,60.50
2018-05-08T18:44:50.773Z,60.50
2018-05-08T18:47:17.506Z,60.70
2018-05-08T18:49:44.150Z,61.00
2018-05-08T18:52:10.829Z,61.30
2018-05-08T18:54:37.402Z,61.50
2018-05-08T18:57:04.024Z,61.70
2018-05-08T18:59:30.617Z,62.40
2018-05-08T19:01:57.217Z,62.60
2018-05-08T19:04:24.852Z,62.60
2018-05-08T19:06:51.556Z,62.70
2018-05-08T19:09:18.507Z,63.10
2018-05-08T19:11:45.137Z,63.20
2018-05-08T19:14:11.781Z,63.30
2018-05-08T19:16:39.081Z,63.30
2018-05-08T19:19:11.757Z,63.20
2018-05-08T19:21:38.532Z,63.10
2018-05-08T19:24:11.268Z,63.00
2018-05-08T19:26:38.384Z,63.00
2018-05-08T19:32:11.579Z,63.10
2018-05-08T19:34:44.118Z,63.10
2018-05-08T19:37:17.007Z,63.30
2018-05-08T19:39:43.674Z,63.20
2018-05-08T19:42:12.021Z,63.60
2018-05-08T19:44:38.637Z,63.60
2018-05-08T19:47:05.565Z,64.00
2018-05-08T19:49:32.255Z,64.00
2018-05-08T19:51:59.221Z,64.40
2018-05-08T19:54:25.813Z,64.40
2018-05-08T19:56:52.437Z,64.40
2018-05-08T19:59:19.924Z,64.60
2018-05-08T20:01:46.547Z,64.70
2018-05-08T20:04:13.249Z,64.90
2018-05-08T20:06:39.829Z,65.80
2018-05-08T20:09:06.447Z,65.30
2018-05-08T20:11:33.170Z,65.20
2018-05-08T20:13:59.777Z,64.80
2018-05-08T20:16:26.633Z,64.70
2018-05-08T20:18:53.795Z,64.80
2018-05-08T20:21:20.488Z,64.90
2018-05-08T20:23:47.245Z,65.10
2018-05-08T20:26:14.003Z,64.80
2018-05-08T20:28:41.021Z,65.00
2018-05-08T20:31:07.572Z,65.00
2018-05-08T20:33:34.233Z,64.80
2018-05-08T20:36:00.823Z,64.90
2018-05-08T20:38:27.432Z,64.80
2018-05-08T20:40:54.029Z,64.90
2018-05-08T20:43:21.033Z,64.90
2018-05-08T20:45:47.657Z,64.90
2018-05-08T20:48:14.596Z,65.50
2018-05-08T20:50:41.552Z,65.60
2018-05-08T20:53:08.497Z,65.90
2018-05-08T20:55:35.130Z,65.90
2018-05-08T20:58:01.670Z,66.10
2018-05-08T21:00:28.214Z,66.10
2018-05-08T21:02:54.788Z,65.90
2018-05-08T21:05:21.381Z,65.70
2018-05-08T21:07:47.943Z,65.90
2018-05-08T21:10:14.662Z,65.80
2018-05-08T21:12:41.285Z,66.10
2018-05-08T21:15:07.873Z,66.80
2018-05-08T21:17:34.589Z,66.50
2018-05-08T21:20:01.104Z,66.60
2018-05-08T21:22:27.692Z,66.80
2018-05-08T21:24:54.620Z,67.10
2018-05-08T21:27:21.261Z,67.10
2018-05-08T21:29:53.832Z,67.00
2018-05-08T21:32:20.421Z,66.90
2018-05-08T21:34:47.024Z,67.10
2018-05-08T21:37:13.584Z,66.80
2018-05-08T21:39:40.182Z,67.00
2018-05-08T21:42:06.768Z,67.00
2018-05-08T21:44:33.436Z,67.20
2018-05-08T21:47:00.107Z,66.90
2018-05-08T21:49:26.696Z,66.80
2018-05-08T21:51:53.282Z,66.70
2018-05-08T21:54:19.854Z,66.90
2018-05-08T21:56:46.550Z,67.00
2018-05-08T21:59:13.128Z,66.70
2018-05-08T22:01:39.680Z,66.60
2018-05-08T22:04:06.260Z,66.80
2018-05-08T22:06:33.269Z,66.90
2018-05-08T22:08:59.844Z,66.90
2018-05-08T22:11:26.428Z,66.70
2018-05-08T22:13:53.332Z,66.60
2018-05-08T22:16:19.916Z,66.60
2018-05-08T22:18:46.841Z,66.70
2018-05-08T22:21:13.434Z,66.80
2018-05-08T22:23:40.376Z,67.20
2018-05-08T22:26:07.317Z,66.50
2018-05-08T22:28:33.908Z,66.50
2018-05-08T22:31:00.464Z,66.50
2018-05-08T22:33:27.058Z,66.80
2018-05-08T22:35:53.644Z,66.70
2018-05-08T22:38:20.204Z,66.60
2018-05-08T22:40:46.813Z,66.80
2018-05-08T22:43:13.731Z,66.70
2018-05-08T22:45:40.330Z,66.70
2018-05-08T22:48:07.308Z,66.70
2018-05-08T22:50:33.928Z,66.70
2018-05-08T22:53:00.947Z,66.40
2018-05-08T22:55:27.536Z,66.40
2018-05-08T22:57:54.484Z,66.40
2018-05-08T23:00:21.124Z,66.40
2018-05-08T23:02:47.721Z,66.70
2018-05-08T23:05:14.303Z,66.80
2018-05-08T23:07:40.860Z,67.20
2018-05-08T23:10:07.431Z,67.20
2018-05-08T23:12:34.386Z,67.30
2018-05-08T23:15:01.316Z,67.30
2018-05-08T23:17:27.900Z,67.30
2018-05-08T23:19:54.855Z,67.50
2018-05-08T23:22:21.756Z,67.00
2018-05-08T23:24:48.369Z,67.00
2018-05-08T23:27:14.937Z,67.30
2018-05-08T23:29:41.544Z,67.30
2018-05-08T23:32:08.500Z,67.90
2018-05-08T23:34:35.424Z,68.20
2018-05-08T23:37:02.004Z,68.20
2018-05-08T23:39:28.911Z,68.20
2018-05-08T23:41:55.467Z,68.20
2018-05-08T23:44:22.052Z,68.50
2018-05-08T23:46:49.019Z,69.10
2018-05-08T23:49:15.969Z,69.00
2018-05-08T23:51:42.893Z,69.20
2018-05-08T23:54:09.531Z,69.20
2018-05-08T23:56:36.113Z,69.00
2018-05-08T23:59:02.690Z,69.00
